Terminal Aerodrome Forecast
Issued by NWS

Home | Current Version | Previous Version | Text Only | Print | Product List | Glossary On
Versions: 1 2 3 4 5 6 7 8 9 10 11 12 13 14 15 16 17
572
FTUS46 KSGX 212333
TAFCRQ
TAF
KCRQ 212333Z 2200/2224 27007KT P6SM BKN070
     FM220400 VRB03KT P6SM SCT015 BKN070
     FM221200 VRB03KT P6SM SCT015 BKN050
     FM221900 27010G18KT P6SM BKN060=

USA.gov is the U.S. government's official web portal to all federal, state and local government web resources and services.